createdAt,value
2018-05-12T00:01:54.567Z,16.83
2018-05-12T00:04:25.528Z,16.83
2018-05-12T00:06:56.645Z,16.83
2018-05-12T00:09:27.534Z,16.83
2018-05-12T00:11:58.615Z,16.83
2018-05-12T00:14:29.596Z,16.82
2018-05-12T00:17:00.462Z,16.81
2018-05-12T00:19:31.333Z,16.79
2018-05-12T00:22:02.873Z,16.74
2018-05-12T00:24:33.569Z,16.73
2018-05-12T00:27:04.781Z,16.70
2018-05-12T00:29:35.541Z,16.69
2018-05-12T00:32:06.351Z,16.68
2018-05-12T00:34:37.022Z,16.67
2018-05-12T00:37:07.774Z,16.66
2018-05-12T00:39:38.503Z,16.66
2018-05-12T00:42:09.647Z,16.66
2018-05-12T00:44:40.487Z,16.67
2018-05-12T00:47:11.548Z,16.67
2018-05-12T00:49:42.146Z,16.68
2018-05-12T00:52:12.986Z,16.68
2018-05-12T00:54:43.650Z,16.66
2018-05-12T00:57:14.580Z,16.65
2018-05-12T00:59:45.090Z,16.64
2018-05-12T01:02:15.876Z,16.63
2018-05-12T01:04:46.554Z,16.62
2018-05-12T01:07:17.682Z,16.59
2018-05-12T01:09:48.578Z,16.58
2018-05-12T01:12:19.686Z,16.58
2018-05-12T01:14:50.151Z,16.58
2018-05-12T01:17:20.995Z,16.58
2018-05-12T01:19:51.685Z,16.56
2018-05-12T01:22:22.673Z,16.56
2018-05-12T01:24:53.565Z,16.55
2018-05-12T01:27:24.178Z,16.55
2018-05-12T01:29:54.088Z,16.55
2018-05-12T01:32:24.965Z,16.54
2018-05-12T01:34:55.574Z,16.53
2018-05-12T01:37:26.558Z,16.51
2018-05-12T01:39:57.543Z,16.49
2018-05-12T01:42:28.210Z,16.48
2018-05-12T01:44:58.914Z,16.45
2018-05-12T01:47:29.682Z,16.44
2018-05-12T01:50:00.647Z,16.41
2018-05-12T01:52:31.582Z,16.38
2018-05-12T01:55:02.230Z,16.37
2018-05-12T01:57:33.011Z,16.39
2018-05-12T02:00:03.725Z,16.39
2018-05-12T02:02:34.652Z,16.40
2018-05-12T02:05:05.655Z,16.39
2018-05-12T02:07:36.189Z,16.39
2018-05-12T02:10:06.174Z,16.38
2018-05-12T02:12:36.862Z,16.39
2018-05-12T02:15:07.550Z,16.38
2018-05-12T02:17:38.651Z,16.39
2018-05-12T02:20:09.547Z,16.39
2018-05-12T02:22:40.219Z,16.39
2018-05-12T02:25:10.862Z,16.39
2018-05-12T02:27:41.670Z,16.40
2018-05-12T02:30:12.576Z,16.39
2018-05-12T02:32:43.604Z,16.39
2018-05-12T02:35:13.834Z,16.39
2018-05-12T02:37:44.720Z,16.38
2018-05-12T02:40:15.563Z,16.36
2018-05-12T02:42:46.202Z,16.32
2018-05-12T02:45:16.914Z,16.31
2018-05-12T02:47:46.938Z,16.30
2018-05-12T02:50:17.674Z,16.28
2018-05-12T02:52:48.579Z,16.27
2018-05-12T02:55:19.546Z,16.25
2018-05-12T02:57:50.650Z,16.24
2018-05-12T03:00:21.555Z,16.23
2018-05-12T03:02:52.178Z,16.17
2018-05-12T03:05:22.994Z,16.11
2018-05-12T03:07:53.051Z,16.06
2018-05-12T03:10:23.766Z,16.08
2018-05-12T03:12:54.662Z,16.02
2018-05-12T03:15:25.633Z,16.03
2018-05-12T03:17:56.678Z,15.92
2018-05-12T03:20:27.537Z,16.09
2018-05-12T03:22:58.665Z,16.13
2018-05-12T03:25:29.514Z,16.16
2018-05-12T03:28:00.587Z,16.17
2018-05-12T03:30:31.489Z,16.20
2018-05-12T03:33:02.634Z,16.21
2018-05-12T03:35:33.598Z,16.22
2018-05-12T03:38:04.590Z,16.25
2018-05-12T03:40:35.571Z,16.26
2018-05-12T03:43:06.570Z,16.03
2018-05-12T03:45:37.594Z,16.30
2018-05-12T03:48:08.566Z,16.32
2018-05-12T03:50:39.533Z,16.34
2018-05-12T03:53:10.643Z,16.31
2018-05-12T03:55:41.102Z,16.31
2018-05-12T03:58:11.894Z,16.31
2018-05-12T04:00:42.654Z,16.31
2018-05-12T04:03:13.218Z,16.31
2018-05-12T04:05:55.124Z,16.31
2018-05-12T04:08:34.964Z,16.32
2018-05-12T04:11:15.219Z,16.33
2018-05-12T04:13:44.178Z,16.36
2018-05-12T04:16:13.354Z,16.36
2018-05-12T04:18:42.354Z,16.37
2018-05-12T04:21:11.290Z,16.36
2018-05-12T04:23:40.230Z,16.37
2018-05-12T04:26:09.293Z,16.38
2018-05-12T04:28:38.233Z,16.40
2018-05-12T04:31:07.178Z,16.42
2018-05-12T04:33:36.742Z,16.43
2018-05-12T04:36:05.694Z,16.43
2018-05-12T04:38:34.634Z,16.44
2018-05-12T04:41:03.670Z,16.46
2018-05-12T04:43:32.611Z,16.48
2018-05-12T04:46:01.571Z,16.51
2018-05-12T04:48:30.985Z,16.54
2018-05-12T04:50:59.950Z,16.55
2018-05-12T04:53:30.785Z,16.52
2018-05-12T04:56:01.658Z,16.51
2018-05-12T04:58:32.573Z,16.49
2018-05-12T05:01:03.546Z,16.51
2018-05-12T05:03:34.675Z,16.51
2018-05-12T05:06:05.610Z,16.52
2018-05-12T05:08:36.653Z,16.50
2018-05-12T05:11:07.562Z,16.46
2018-05-12T05:13:38.666Z,16.58
2018-05-12T05:16:09.538Z,16.65
2018-05-12T05:18:40.198Z,16.71
2018-05-12T05:21:11.049Z,16.74
2018-05-12T05:23:41.955Z,16.80
2018-05-12T05:26:12.644Z,16.84
2018-05-12T05:28:43.569Z,16.86
2018-05-12T05:31:14.278Z,16.89
2018-05-12T05:33:45.017Z,16.95
2018-05-12T05:36:15.760Z,16.97
2018-05-12T05:38:46.679Z,17.03
2018-05-12T05:41:17.605Z,17.11
2018-05-12T05:43:48.579Z,17.17
2018-05-12T05:46:19.487Z,17.24
2018-05-12T05:48:50.602Z,17.28
2018-05-12T05:51:21.606Z,17.31
2018-05-12T05:53:52.704Z,17.30
2018-05-12T05:56:23.110Z,17.30
2018-05-12T05:58:53.893Z,17.23
2018-05-12T06:01:25.826Z,17.30
2018-05-12T06:03:56.263Z,17.35
2018-05-12T06:06:26.762Z,17.36
2018-05-12T06:08:57.220Z,17.38
2018-05-12T06:11:27.975Z,17.46
2018-05-12T06:13:58.953Z,17.54
2018-05-12T06:16:29.712Z,17.64
2018-05-12T06:19:01.555Z,17.71
2018-05-12T06:21:31.163Z,17.76
2018-05-12T06:24:01.974Z,17.71
2018-05-12T06:26:32.741Z,17.73
2018-05-12T06:29:03.719Z,17.78
2018-05-12T06:31:36.984Z,17.85
2018-05-12T06:34:06.072Z,17.95
2018-05-12T06:36:36.830Z,18.00
2018-05-12T06:39:07.635Z,18.07
2018-05-12T06:41:39.019Z,18.16
2018-05-12T06:44:09.839Z,18.20
2018-05-12T06:46:40.640Z,18.30
2018-05-12T06:49:11.771Z,18.39
2018-05-12T06:51:42.562Z,18.47
2018-05-12T06:54:13.653Z,18.50
2018-05-12T06:56:44.610Z,18.56
2018-05-12T06:59:16.246Z,18.59
2018-05-12T07:01:48.720Z,18.56
2018-05-12T07:04:17.878Z,18.67
2018-05-12T07:06:47.927Z,18.68
2018-05-12T07:09:18.762Z,18.79
2018-05-12T07:11:53.330Z,18.93
2018-05-12T07:14:22.431Z,19.05
2018-05-12T07:16:51.399Z,19.17
2018-05-12T07:19:22.322Z,19.26
2018-05-12T07:21:52.106Z,19.26
2018-05-12T07:24:22.893Z,19.38
2018-05-12T07:26:54.163Z,19.50
2018-05-12T07:29:24.974Z,19.61
2018-05-12T07:31:55.733Z,19.66
2018-05-12T07:34:26.281Z,19.75
2018-05-12T07:36:58.079Z,19.89
2018-05-12T07:39:34.397Z,20.03
2018-05-12T07:42:08.277Z,20.23
2018-05-12T07:44:37.305Z,20.28
2018-05-12T07:47:06.302Z,20.42
2018-05-12T07:49:35.251Z,20.59
2018-05-12T07:52:05.809Z,20.70
2018-05-12T07:54:34.853Z,20.83
2018-05-12T07:57:03.879Z,20.88
2018-05-12T07:59:34.087Z,20.92
2018-05-12T08:02:04.821Z,21.03
2018-05-12T08:04:35.623Z,21.20
2018-05-12T08:07:06.646Z,21.22
2018-05-12T08:09:37.619Z,21.23
2018-05-12T08:12:09.182Z,21.32
2018-05-12T08:14:39.943Z,21.39
2018-05-12T08:17:10.648Z,21.53
2018-05-12T08:19:41.680Z,21.67
2018-05-12T08:22:12.545Z,21.83
2018-05-12T08:24:43.657Z,21.88
2018-05-12T08:27:14.554Z,21.87
2018-05-12T08:29:45.748Z,22.01
2018-05-12T08:32:16.591Z,22.15
2018-05-12T08:34:47.573Z,22.42
2018-05-12T08:37:18.608Z,22.56
2018-05-12T08:39:49.651Z,22.73
2018-05-12T08:42:20.602Z,22.91
2018-05-12T08:44:51.588Z,22.88
2018-05-12T08:47:22.599Z,23.03
2018-05-12T08:49:53.611Z,23.05
2018-05-12T08:52:24.543Z,23.08
2018-05-12T08:54:55.668Z,23.20
2018-05-12T08:57:26.508Z,23.38
2018-05-12T08:59:57.564Z,23.57
2018-05-12T09:02:28.551Z,23.72
2018-05-12T09:04:59.646Z,23.91
2018-05-12T09:07:30.156Z,23.99
2018-05-12T09:10:00.898Z,24.22
2018-05-12T09:12:31.570Z,24.35
2018-05-12T09:15:02.579Z,24.52
2018-05-12T09:17:33.670Z,24.49
2018-05-12T09:20:04.277Z,24.63
2018-05-12T09:22:35.827Z,24.81
2018-05-12T09:25:06.655Z,24.98
2018-05-12T09:27:37.192Z,25.12
2018-05-12T09:30:08.027Z,25.30
2018-05-12T09:32:38.869Z,25.39
2018-05-12T09:35:09.834Z,25.52
2018-05-12T09:37:40.535Z,25.57
2018-05-12T09:40:12.430Z,25.53
2018-05-12T09:42:43.214Z,25.57
2018-05-12T09:45:13.949Z,25.84
2018-05-12T09:47:44.714Z,25.82
2018-05-12T09:50:15.567Z,25.87
2018-05-12T09:52:46.611Z,25.61
2018-05-12T09:55:16.642Z,25.80
2018-05-12T09:57:47.274Z,25.88
2018-05-12T10:00:18.006Z,25.89
2018-05-12T10:02:49.120Z,25.83
2018-05-12T10:05:20.205Z,25.74
2018-05-12T10:07:51.107Z,25.86
2018-05-12T10:10:22.214Z,26.20
2018-05-12T10:12:53.268Z,26.51
2018-05-12T10:15:24.296Z,26.47
2018-05-12T10:18:01.234Z,26.17
2018-05-12T10:20:30.345Z,26.11
2018-05-12T10:22:59.895Z,26.07
2018-05-12T10:25:28.810Z,25.92
2018-05-12T10:27:59.794Z,25.86
2018-05-12T10:30:30.604Z,25.69
2018-05-12T10:33:01.611Z,25.68
2018-05-12T10:35:32.352Z,25.87
2018-05-12T10:38:04.007Z,25.96
2018-05-12T10:40:34.031Z,26.11
2018-05-12T10:43:04.868Z,26.27
2018-05-12T10:45:35.668Z,26.60
2018-05-12T10:48:06.823Z,26.60
2018-05-12T10:50:37.613Z,26.48
2018-05-12T10:53:08.747Z,26.48
2018-05-12T10:55:39.634Z,26.76
2018-05-12T10:58:10.769Z,26.65
2018-05-12T11:00:41.613Z,26.71
2018-05-12T11:03:12.704Z,26.86
2018-05-12T11:05:43.587Z,26.94
2018-05-12T11:08:14.274Z,27.22
2018-05-12T11:10:44.821Z,27.25
2018-05-12T11:13:15.719Z,26.94
2018-05-12T11:15:46.234Z,26.69
2018-05-12T11:18:16.998Z,26.79
2018-05-12T11:20:47.019Z,26.70
2018-05-12T11:23:17.880Z,26.86
2018-05-12T11:25:48.948Z,26.97
2018-05-12T11:28:19.767Z,27.09
2018-05-12T11:30:50.838Z,27.20
2018-05-12T11:33:22.582Z,26.96
2018-05-12T11:35:53.266Z,27.10
2018-05-12T11:38:27.529Z,27.49
2018-05-12T11:40:57.086Z,27.81
2018-05-12T11:43:26.055Z,28.14
2018-05-12T11:45:56.090Z,28.16
2018-05-12T11:48:26.948Z,28.23
2018-05-12T11:50:57.688Z,28.06
2018-05-12T11:53:28.659Z,28.32
2018-05-12T11:55:59.205Z,28.59
2018-05-12T11:58:30.030Z,28.39
2018-05-12T12:01:00.949Z,28.20
2018-05-12T12:03:31.819Z,28.16
2018-05-12T12:06:02.598Z,28.48
2018-05-12T12:08:33.155Z,28.50
2018-05-12T12:11:03.932Z,28.80
2018-05-12T12:13:34.724Z,29.15
2018-05-12T12:16:05.725Z,29.51
2018-05-12T12:18:36.654Z,29.34
2018-05-12T12:21:07.725Z,29.34
2018-05-12T12:23:38.755Z,29.32
2018-05-12T12:26:09.793Z,29.00
2018-05-12T12:28:40.568Z,28.95
2018-05-12T12:31:12.381Z,29.22
2018-05-12T12:33:43.151Z,29.34
2018-05-12T12:36:13.229Z,29.69
2018-05-12T12:38:44.019Z,30.06
2018-05-12T12:41:14.706Z,30.36
2018-05-12T12:43:45.579Z,30.36
2018-05-12T12:46:16.607Z,30.30
2018-05-12T12:48:47.615Z,30.46
2018-05-12T12:51:18.678Z,30.58
2018-05-12T12:53:49.575Z,30.52
2018-05-12T12:56:20.188Z,30.71
2018-05-12T12:58:50.947Z,30.54
2018-05-12T13:01:21.031Z,30.64
2018-05-12T13:03:51.941Z,30.94
2018-05-12T13:06:22.668Z,31.19
2018-05-12T13:08:53.595Z,31.10
2018-05-12T13:11:24.870Z,31.01
2018-05-12T13:13:55.956Z,31.15
2018-05-12T13:16:26.146Z,31.02
2018-05-12T13:18:56.961Z,31.13
2018-05-12T13:21:27.694Z,31.25
2018-05-12T13:23:58.609Z,31.51
2018-05-12T13:26:29.609Z,31.71
2018-05-12T13:29:00.617Z,31.85
2018-05-12T13:31:31.319Z,31.92
2018-05-12T13:34:02.114Z,31.90
2018-05-12T13:36:32.830Z,31.71
2018-05-12T13:39:03.446Z,31.88
2018-05-12T13:41:34.562Z,31.90
2018-05-12T13:44:05.541Z,31.66
2018-05-12T13:46:36.568Z,31.32
2018-05-12T13:49:07.618Z,31.27
2018-05-12T13:51:38.502Z,31.16
2018-05-12T13:54:09.630Z,31.06
2018-05-12T13:56:40.531Z,31.03
2018-05-12T13:59:11.673Z,30.89
2018-05-12T14:01:42.144Z,30.25
2018-05-12T14:04:12.965Z,29.91
2018-05-12T14:06:43.694Z,29.82
2018-05-12T14:09:14.580Z,29.06
2018-05-12T14:11:45.524Z,28.76
2018-05-12T14:14:16.651Z,28.66
2018-05-12T14:16:47.535Z,28.44
2018-05-12T14:19:18.627Z,28.44
2018-05-12T14:21:49.530Z,28.18
2018-05-12T14:24:20.646Z,27.60
2018-05-12T14:26:51.609Z,27.34
2018-05-12T14:29:22.727Z,27.50
2018-05-12T14:31:53.447Z,27.62
2018-05-12T14:34:24.153Z,27.70
2018-05-12T14:36:54.880Z,27.73
2018-05-12T14:39:25.684Z,27.70
2018-05-12T14:41:57.078Z,27.43
2018-05-12T14:44:27.863Z,27.50
2018-05-12T14:46:58.621Z,27.57
2018-05-12T14:49:29.702Z,27.60
2018-05-12T14:52:01.340Z,27.62
2018-05-12T14:54:31.585Z,27.57
2018-05-12T14:57:02.558Z,27.51
2018-05-12T14:59:33.623Z,27.42
2018-05-12T15:02:04.634Z,27.35
2018-05-12T15:04:35.677Z,27.29
2018-05-12T15:07:06.544Z,27.05
2018-05-12T15:09:37.542Z,27.02
2018-05-12T15:12:08.545Z,26.94
2018-05-12T15:14:39.554Z,26.95
2018-05-12T15:17:10.795Z,26.92
2018-05-12T15:19:41.654Z,26.78
2018-05-12T15:22:12.521Z,26.59
2018-05-12T15:24:43.611Z,26.41
2018-05-12T15:27:14.468Z,26.31
2018-05-12T15:29:45.244Z,26.25
2018-05-12T15:32:15.938Z,26.26
2018-05-12T15:34:46.799Z,26.17
2018-05-12T15:37:17.569Z,26.16
2018-05-12T15:39:48.519Z,26.09
2018-05-12T15:42:19.578Z,26.01
2018-05-12T15:44:50.642Z,25.98
2018-05-12T15:47:21.559Z,25.89
2018-05-12T15:49:52.593Z,25.85
2018-05-12T15:52:23.543Z,25.81
2018-05-12T15:54:54.634Z,25.36
2018-05-12T15:57:25.711Z,25.39
2018-05-12T15:59:56.598Z,25.35
2018-05-12T16:02:27.483Z,25.46
2018-05-12T16:04:58.687Z,25.46
2018-05-12T16:07:29.600Z,25.32
2018-05-12T16:10:00.291Z,24.92
2018-05-12T16:12:30.886Z,24.93
2018-05-12T16:15:01.716Z,25.05
2018-05-12T16:17:32.594Z,25.12
2018-05-12T16:20:03.645Z,25.15
2018-05-12T16:22:34.180Z,25.15
2018-05-12T16:25:04.998Z,25.16
2018-05-12T16:27:35.729Z,24.93
2018-05-12T16:30:06.950Z,24.91
2018-05-12T16:32:36.953Z,24.96
2018-05-12T16:35:07.847Z,24.86
2018-05-12T16:37:37.958Z,24.67
2018-05-12T16:40:08.773Z,24.74
2018-05-12T16:42:39.615Z,24.77
2018-05-12T16:45:10.285Z,24.70
2018-05-12T16:47:41.918Z,24.69
2018-05-12T16:50:12.104Z,24.65
2018-05-12T16:52:42.867Z,24.59
2018-05-12T16:55:13.713Z,24.46
2018-05-12T16:57:44.621Z,24.30
2018-05-12T17:00:15.749Z,24.28
2018-05-12T17:02:46.535Z,24.11
2018-05-12T17:05:17.655Z,24.11
2018-05-12T17:07:48.666Z,23.97
2018-05-12T17:10:19.627Z,23.84
2018-05-12T17:12:50.607Z,23.81
2018-05-12T17:15:21.707Z,23.81
2018-05-12T17:17:52.614Z,23.67
2018-05-12T17:20:23.594Z,23.66
2018-05-12T17:22:54.544Z,23.67
2018-05-12T17:25:25.662Z,23.71
2018-05-12T17:27:56.668Z,23.76
2018-05-12T17:30:27.712Z,23.75
2018-05-12T17:32:58.547Z,23.68
2018-05-12T17:35:29.682Z,23.64
2018-05-12T17:38:00.558Z,23.63
2018-05-12T17:40:31.646Z,23.64
2018-05-12T17:43:02.631Z,23.64
2018-05-12T17:45:33.731Z,23.63
2018-05-12T17:48:04.405Z,23.60
2018-05-12T17:50:35.583Z,23.58
2018-05-12T17:53:06.647Z,23.56
2018-05-12T17:55:37.633Z,23.48
2018-05-12T17:58:07.951Z,23.46
2018-05-12T18:00:38.805Z,23.44
2018-05-12T18:03:10.613Z,23.39
2018-05-12T18:05:41.267Z,23.33
2018-05-12T18:08:11.958Z,23.34
2018-05-12T18:10:42.751Z,23.33
2018-05-12T18:13:13.581Z,23.30
2018-05-12T18:15:44.592Z,23.24
2018-05-12T18:18:15.582Z,23.16
2018-05-12T18:20:46.629Z,23.11
2018-05-12T18:23:17.637Z,23.04
2018-05-12T18:25:48.861Z,22.99
2018-05-12T18:28:19.698Z,22.95
2018-05-12T18:30:50.562Z,22.91
2018-05-12T18:33:21.796Z,22.84
2018-05-12T18:35:52.764Z,22.86
2018-05-12T18:38:23.372Z,22.96
2018-05-12T18:40:54.105Z,23.04
2018-05-12T18:43:24.919Z,23.09
2018-05-12T18:45:55.667Z,23.11
2018-05-12T18:48:26.703Z,23.13
2018-05-12T18:50:57.521Z,23.11
2018-05-12T18:53:28.581Z,23.12
2018-05-12T18:55:59.537Z,23.12
2018-05-12T18:58:31.383Z,23.07
2018-05-12T19:01:02.159Z,22.98
2018-05-12T19:03:33.058Z,22.79
2018-05-12T19:06:03.797Z,22.65
2018-05-12T19:08:34.658Z,22.52
2018-05-12T19:11:05.686Z,22.40
2018-05-12T19:13:36.794Z,22.31
2018-05-12T19:16:07.786Z,22.22
2018-05-12T19:18:38.736Z,22.07
2018-05-12T19:21:09.227Z,22.07
2018-05-12T19:23:43.050Z,21.97
2018-05-12T19:26:13.855Z,21.93
2018-05-12T19:28:42.908Z,21.88
2018-05-12T19:31:16.818Z,21.82
2018-05-12T19:33:45.845Z,21.77
2018-05-12T19:36:15.069Z,21.71
2018-05-12T19:38:55.248Z,21.70
2018-05-12T19:41:24.467Z,21.73
2018-05-12T19:43:53.584Z,21.84
2018-05-12T19:46:22.786Z,21.89
2018-05-12T19:48:51.824Z,21.94
2018-05-12T19:51:20.854Z,21.96
2018-05-12T19:53:51.639Z,21.98
2018-05-12T19:56:22.228Z,22.01
2018-05-12T19:58:53.096Z,21.99
2018-05-12T20:01:23.992Z,22.01
2018-05-12T20:03:54.835Z,22.00
2018-05-12T20:06:25.060Z,21.99
2018-05-12T20:08:55.836Z,21.98
2018-05-12T20:11:26.643Z,21.99
2018-05-12T20:13:57.147Z,21.98
2018-05-12T20:16:27.987Z,21.98
2018-05-12T20:18:58.015Z,21.94
2018-05-12T20:21:28.874Z,21.92
2018-05-12T20:23:59.639Z,21.90
2018-05-12T20:26:30.881Z,21.84
2018-05-12T20:29:01.806Z,21.80
2018-05-12T20:31:33.512Z,21.77
2018-05-12T20:34:04.271Z,21.76
2018-05-12T20:36:35.053Z,21.73
2018-05-12T20:39:04.657Z,21.72
2018-05-12T20:41:35.954Z,21.70
2018-05-12T20:44:08.316Z,21.68
2018-05-12T20:46:39.212Z,21.63
2018-05-12T20:49:09.952Z,21.62
2018-05-12T20:51:40.232Z,21.60
2018-05-12T20:54:11.238Z,21.58
2018-05-12T20:56:42.339Z,21.54
2018-05-12T20:59:13.022Z,21.46
2018-05-12T21:01:45.347Z,21.44
2018-05-12T21:04:15.434Z,21.41
2018-05-12T21:06:46.836Z,21.38
2018-05-12T21:09:16.877Z,21.36
2018-05-12T21:11:47.875Z,21.32
2018-05-12T21:14:18.732Z,21.31
2018-05-12T21:16:49.815Z,21.28
2018-05-12T21:19:20.555Z,21.24
2018-05-12T21:21:51.625Z,21.24
2018-05-12T21:24:23.798Z,21.20
2018-05-12T21:26:59.467Z,21.10
2018-05-12T21:29:29.021Z,21.04
2018-05-12T21:31:58.028Z,20.98
2018-05-12T21:34:27.062Z,20.98
2018-05-12T21:36:57.026Z,20.94
2018-05-12T21:39:28.359Z,20.95
2018-05-12T21:41:59.002Z,20.96
2018-05-12T21:44:29.200Z,20.96
2018-05-12T21:46:59.897Z,20.96
2018-05-12T21:49:30.795Z,20.94
2018-05-12T21:52:01.554Z,20.91
2018-05-12T21:54:33.129Z,20.88
2018-05-12T21:57:04.007Z,20.85
2018-05-12T21:59:38.609Z,20.82
2018-05-12T22:02:08.001Z,20.76
2018-05-12T22:04:37.579Z,20.74
2018-05-12T22:07:08.308Z,20.70
2018-05-12T22:13:09.371Z,20.55
2018-05-12T22:15:38.425Z,20.55
2018-05-12T22:18:07.406Z,20.47
2018-05-12T22:20:36.391Z,20.42
2018-05-12T22:23:05.476Z,20.35
2018-05-12T22:25:34.460Z,20.32
2018-05-12T22:28:03.425Z,20.28
2018-05-12T22:30:32.505Z,20.23
2018-05-12T22:33:01.720Z,20.21
2018-05-12T22:35:31.008Z,20.14
2018-05-12T22:38:00.251Z,19.93
2018-05-12T22:40:35.978Z,19.87
2018-05-12T22:43:05.251Z,19.78
2018-05-12T22:45:34.394Z,19.79
2018-05-12T22:48:03.322Z,19.80
2018-05-12T22:50:33.056Z,19.78
2018-05-12T22:53:02.098Z,19.76
2018-05-12T22:55:31.183Z,19.75
2018-05-12T22:58:00.591Z,19.76
2018-05-12T23:00:32.585Z,19.71
2018-05-12T23:03:01.634Z,19.67
2018-05-12T23:05:30.588Z,19.64
2018-05-12T23:07:59.568Z,19.60
2018-05-12T23:10:28.582Z,19.59
2018-05-12T23:12:57.842Z,19.56
2018-05-12T23:15:27.209Z,19.45
2018-05-12T23:17:56.222Z,19.51
2018-05-12T23:20:25.241Z,19.43
2018-05-12T23:22:54.215Z,19.30
2018-05-12T23:25:23.307Z,19.16
2018-05-12T23:27:52.383Z,19.06
2018-05-12T23:30:21.339Z,18.81
2018-05-12T23:32:50.771Z,18.67
2018-05-12T23:35:19.750Z,18.50
2018-05-12T23:37:48.711Z,18.61
2018-05-12T23:40:17.751Z,18.73
2018-05-12T23:42:46.763Z,18.68
2018-05-12T23:45:15.727Z,18.56
2018-05-12T23:47:45.080Z,18.40
2018-05-12T23:50:14.124Z,18.18
2018-05-12T23:52:44.823Z,18.22
2018-05-12T23:55:15.765Z,18.23
2018-05-12T23:57:46.494Z,18.24
